sensor_id;sensor_type;location;lat;lon;timestamp;pressure;altitude;pressure_sealevel;temperature;humidity
77003;BME280;65939;50.060;14.288;2023-11-19T00:01:42;97443.84;;;4.20;86.56
77003;BME280;65939;50.060;14.288;2023-11-19T00:03:42;97436.16;;;4.18;87.28
77003;BME280;65939;50.060;14.288;2023-11-19T00:05:44;97423.38;;;4.17;87.61
77003;BME280;65939;50.060;14.288;2023-11-19T00:07:45;97424.28;;;4.16;87.82
77003;BME280;65939;50.060;14.288;2023-11-19T00:09:45;97417.63;;;4.13;87.33
77003;BME280;65939;50.060;14.288;2023-11-19T00:11:46;97414.44;;;4.10;87.66
77003;BME280;65939;50.060;14.288;2023-11-19T00:13:47;97406.06;;;4.06;87.67
77003;BME280;65939;50.060;14.288;2023-11-19T00:15:48;97411.25;;;4.06;87.61
77003;BME280;65939;50.060;14.288;2023-11-19T00:17:48;97399.25;;;4.05;88.38
77003;BME280;65939;50.060;14.288;2023-11-19T00:19:49;97398.41;;;4.04;88.12
77003;BME280;65939;50.060;14.288;2023-11-19T00:21:52;97397.59;;;4.04;88.56
77003;BME280;65939;50.060;14.288;2023-11-19T00:23:52;97398.41;;;4.04;88.67
77003;BME280;65939;50.060;14.288;2023-11-19T00:25:54;97389.13;;;4.02;88.22
77003;BME280;65939;50.060;14.288;2023-11-19T00:27:54;97382.44;;;3.99;88.24
77003;BME280;65939;50.060;14.288;2023-11-19T00:29:56;97379.28;;;3.96;88.69
77003;BME280;65939;50.060;14.288;2023-11-19T00:31:57;97364.09;;;3.91;88.37
77003;BME280;65939;50.060;14.288;2023-11-19T00:33:58;97368.56;;;3.89;88.92
77003;BME280;65939;50.060;14.288;2023-11-19T00:35:59;97360.91;;;3.88;88.97
77003;BME280;65939;50.060;14.288;2023-11-19T00:37:59;97359.28;;;3.87;88.61
77003;BME280;65939;50.060;14.288;2023-11-19T00:40:01;97360.22;;;3.86;89.08
77003;BME280;65939;50.060;14.288;2023-11-19T00:42:05;97361.16;;;3.84;89.01
77003;BME280;65939;50.060;14.288;2023-11-19T00:44:06;97353.41;;;3.84;89.14
77003;BME280;65939;50.060;14.288;2023-11-19T00:46:07;97343.06;;;3.84;89.06
77003;BME280;65939;50.060;14.288;2023-11-19T00:48:08;97328.63;;;3.82;89.16
77003;BME280;65939;50.060;14.288;2023-11-19T00:50:09;97318.28;;;3.82;89.18
77003;BME280;65939;50.060;14.288;2023-11-19T00:52:10;97333.88;;;3.80;88.82
77003;BME280;65939;50.060;14.288;2023-11-19T00:54:10;97342.47;;;3.81;89.29
77003;BME280;65939;50.060;14.288;2023-11-19T00:56:11;97345.06;;;3.81;89.22
77003;BME280;65939;50.060;14.288;2023-11-19T00:58:12;97351.03;;;3.81;89.16
77003;BME280;65939;50.060;14.288;2023-11-19T01:00:13;97343.19;;;3.83;89.13
77003;BME280;65939;50.060;14.288;2023-11-19T01:02:21;97340.59;;;3.83;89.21
77003;BME280;65939;50.060;14.288;2023-11-19T01:04:22;97334.59;;;3.82;89.04
77003;BME280;65939;50.060;14.288;2023-11-19T01:06:31;97327.91;;;3.80;89.60
77003;BME280;65939;50.060;14.288;2023-11-19T01:08:32;97324.41;;;3.81;89.29
77003;BME280;65939;50.060;14.288;2023-11-19T01:10:33;97327.06;;;3.79;89.50
77003;BME280;65939;50.060;14.288;2023-11-19T01:12:34;97312.53;;;3.78;89.83
77003;BME280;65939;50.060;14.288;2023-11-19T01:14:35;97303.97;;;3.78;90.06
77003;BME280;65939;50.060;14.288;2023-11-19T01:16:36;97306.66;;;3.76;89.53
77003;BME280;65939;50.060;14.288;2023-11-19T01:18:36;97306.78;;;3.75;89.51
77003;BME280;65939;50.060;14.288;2023-11-19T01:20:37;97301.69;;;3.73;89.85
77003;BME280;65939;50.060;14.288;2023-11-19T01:22:38;97299.25;;;3.72;89.99
77003;BME280;65939;50.060;14.288;2023-11-19T01:24:38;97291.72;;;3.69;90.18
77003;BME280;65939;50.060;14.288;2023-11-19T01:26:39;97274.69;;;3.66;89.76
77003;BME280;65939;50.060;14.288;2023-11-19T01:28:40;97262.03;;;3.63;90.22
77003;BME280;65939;50.060;14.288;2023-11-19T01:30:45;97265.66;;;3.60;90.17
77003;BME280;65939;50.060;14.288;2023-11-19T01:32:45;97263.16;;;3.59;90.15
77003;BME280;65939;50.060;14.288;2023-11-19T01:34:46;97252.16;;;3.57;90.59
77003;BME280;65939;50.060;14.288;2023-11-19T01:36:47;97246.25;;;3.55;90.62
77003;BME280;65939;50.060;14.288;2023-11-19T01:38:49;97244.84;;;3.51;90.71
77003;BME280;65939;50.060;14.288;2023-11-19T01:40:50;97241.66;;;3.47;90.65
77003;BME280;65939;50.060;14.288;2023-11-19T01:42:51;97236.72;;;3.44;91.08
77003;BME280;65939;50.060;14.288;2023-11-19T01:45:01;97235.09;;;3.43;90.64
77003;BME280;65939;50.060;14.288;2023-11-19T01:47:03;97242.03;;;3.43;91.32
77003;BME280;65939;50.060;14.288;2023-11-19T01:49:05;97230.88;;;3.42;91.07
77003;BME280;65939;50.060;14.288;2023-11-19T01:51:06;97217.16;;;3.42;91.57
77003;BME280;65939;50.060;14.288;2023-11-19T01:53:08;97218.06;;;3.41;91.90
77003;BME280;65939;50.060;14.288;2023-11-19T01:55:11;97223.22;;;3.41;91.72
77003;BME280;65939;50.060;14.288;2023-11-19T01:57:13;97224.91;;;3.42;91.75
77003;BME280;65939;50.060;14.288;2023-11-19T01:59:16;97237.69;;;3.43;91.92
77003;BME280;65939;50.060;14.288;2023-11-19T02:01:17;97229.81;;;3.45;91.50
77003;BME280;65939;50.060;14.288;2023-11-19T02:03:19;97237.47;;;3.46;91.84
77003;BME280;65939;50.060;14.288;2023-11-19T02:05:20;97234.75;;;3.48;91.83
77003;BME280;65939;50.060;14.288;2023-11-19T02:07:24;97220.94;;;3.49;92.27
77003;BME280;65939;50.060;14.288;2023-11-19T02:09:25;97212.94;;;3.52;91.73
77003;BME280;65939;50.060;14.288;2023-11-19T02:11:27;97196.53;;;3.53;92.17
77003;BME280;65939;50.060;14.288;2023-11-19T02:13:29;97178.47;;;3.53;92.44
77003;BME280;65939;50.060;14.288;2023-11-19T02:15:30;97173.19;;;3.54;92.29
77003;BME280;65939;50.060;14.288;2023-11-19T02:17:32;97175.75;;;3.54;92.15
77003;BME280;65939;50.060;14.288;2023-11-19T02:19:32;97175.66;;;3.56;92.28
77003;BME280;65939;50.060;14.288;2023-11-19T02:21:34;97176.25;;;3.59;92.70
77003;BME280;65939;50.060;14.288;2023-11-19T02:23:34;97176.13;;;3.61;92.33
77003;BME280;65939;50.060;14.288;2023-11-19T02:25:37;97166.53;;;3.63;92.68
77003;BME280;65939;50.060;14.288;2023-11-19T02:27:52;97168.97;;;3.65;92.47
77003;BME280;65939;50.060;14.288;2023-11-19T02:29:56;97163.59;;;3.68;92.65
77003;BME280;65939;50.060;14.288;2023-11-19T02:31:57;97160.19;;;3.67;92.62
77003;BME280;65939;50.060;14.288;2023-11-19T02:33:59;97166.03;;;3.69;92.48
77003;BME280;65939;50.060;14.288;2023-11-19T02:36:01;97153.03;;;3.71;92.51
77003;BME280;65939;50.060;14.288;2023-11-19T02:38:03;97153.03;;;3.71;92.52
77003;BME280;65939;50.060;14.288;2023-11-19T02:40:07;97153.84;;;3.71;92.97
77003;BME280;65939;50.060;14.288;2023-11-19T02:42:09;97153.03;;;3.71;92.55
77003;BME280;65939;50.060;14.288;2023-11-19T02:44:10;97146.91;;;3.72;92.17
77003;BME280;65939;50.060;14.288;2023-11-19T02:46:12;97143.16;;;3.76;92.58
77003;BME280;65939;50.060;14.288;2023-11-19T02:48:12;97134.47;;;3.77;92.51
77003;BME280;65939;50.060;14.288;2023-11-19T02:50:14;97131.78;;;3.78;92.37
77003;BME280;65939;50.060;14.288;2023-11-19T02:52:15;97132.47;;;3.80;92.92
77003;BME280;65939;50.060;14.288;2023-11-19T02:54:16;97129.78;;;3.82;92.33
77003;BME280;65939;50.060;14.288;2023-11-19T02:56:17;97127.22;;;3.82;92.44
77003;BME280;65939;50.060;14.288;2023-11-19T02:58:25;97125.31;;;3.84;92.73
77003;BME280;65939;50.060;14.288;2023-11-19T03:00:28;97121.81;;;3.85;92.87
77003;BME280;65939;50.060;14.288;2023-11-19T03:02:36;97111.34;;;3.87;92.56
77003;BME280;65939;50.060;14.288;2023-11-19T03:04:44;97114.66;;;3.89;92.49
77003;BME280;65939;50.060;14.288;2023-11-19T03:06:46;97108.53;;;3.90;92.19
77003;BME280;65939;50.060;14.288;2023-11-19T03:08:47;97090.31;;;3.91;92.47
77003;BME280;65939;50.060;14.288;2023-11-19T03:10:48;97080.84;;;3.92;92.32
77003;BME280;65939;50.060;14.288;2023-11-19T03:12:50;97076.50;;;3.92;92.41
77003;BME280;65939;50.060;14.288;2023-11-19T03:14:50;97069.56;;;3.93;92.60
77003;BME280;65939;50.060;14.288;2023-11-19T03:16:51;97064.28;;;3.94;92.16
77003;BME280;65939;50.060;14.288;2023-11-19T03:18:52;97064.16;;;3.96;92.10
77003;BME280;65939;50.060;14.288;2023-11-19T03:20:53;97062.28;;;3.98;92.90
77003;BME280;65939;50.060;14.288;2023-11-19T03:22:54;97061.44;;;3.97;92.57
77003;BME280;65939;50.060;14.288;2023-11-19T03:24:54;97050.31;;;3.97;92.68
77003;BME280;65939;50.060;14.288;2023-11-19T03:26:55;97048.66;;;3.96;92.37
77003;BME280;65939;50.060;14.288;2023-11-19T03:28:56;97041.84;;;3.95;92.45
77003;BME280;65939;50.060;14.288;2023-11-19T03:30:57;97044.44;;;3.95;92.36
77003;BME280;65939;50.060;14.288;2023-11-19T03:32:58;97043.50;;;3.96;92.54
77003;BME280;65939;50.060;14.288;2023-11-19T03:34:58;97044.31;;;3.96;92.48
77003;BME280;65939;50.060;14.288;2023-11-19T03:36:59;97045.13;;;3.97;92.64
77003;BME280;65939;50.060;14.288;2023-11-19T03:39:00;97038.91;;;3.99;92.52
77003;BME280;65939;50.060;14.288;2023-11-19T03:41:13;97028.59;;;3.99;92.53
77003;BME280;65939;50.060;14.288;2023-11-19T03:43:14;97023.19;;;4.02;92.93
77003;BME280;65939;50.060;14.288;2023-11-19T03:45:16;97021.28;;;4.04;92.81
77003;BME280;65939;50.060;14.288;2023-11-19T03:47:17;97022.09;;;4.05;92.31
77003;BME280;65939;50.060;14.288;2023-11-19T03:49:17;97028.66;;;4.09;93.05
77003;BME280;65939;50.060;14.288;2023-11-19T03:51:18;97013.06;;;4.11;92.44
77003;BME280;65939;50.060;14.288;2023-11-19T03:53:18;97011.03;;;4.14;92.83
77003;BME280;65939;50.060;14.288;2023-11-19T03:55:19;97010.22;;;4.14;92.84
77003;BME280;65939;50.060;14.288;2023-11-19T03:57:20;97012.69;;;4.15;92.46
77003;BME280;65939;50.060;14.288;2023-11-19T03:59:20;97015.97;;;4.17;92.44
77003;BME280;65939;50.060;14.288;2023-11-19T04:01:21;97007.28;;;4.18;92.89
77003;BME280;65939;50.060;14.288;2023-11-19T04:03:22;97006.22;;;4.21;92.28
77003;BME280;65939;50.060;14.288;2023-11-19T04:05:22;96995.75;;;4.22;92.60
77003;BME280;65939;50.060;14.288;2023-11-19T04:07:23;97006.06;;;4.22;92.09
77003;BME280;65939;50.060;14.288;2023-11-19T04:09:23;96993.88;;;4.24;92.54
77003;BME280;65939;50.060;14.288;2023-11-19T04:11:24;96985.31;;;4.24;92.59
77003;BME280;65939;50.060;14.288;2023-11-19T04:13:25;96980.94;;;4.24;92.53
77003;BME280;65939;50.060;14.288;2023-11-19T04:15:26;96981.63;;;4.26;93.14
77003;BME280;65939;50.060;14.288;2023-11-19T04:17:26;96978.13;;;4.27;92.78
77003;BME280;65939;50.060;14.288;2023-11-19T04:19:27;96977.16;;;4.28;92.65
77003;BME280;65939;50.060;14.288;2023-11-19T04:21:28;96970.13;;;4.30;92.66
77003;BME280;65939;50.060;14.288;2023-11-19T04:23:28;96966.59;;;4.31;92.74
77003;BME280;65939;50.060;14.288;2023-11-19T04:25:29;96955.19;;;4.34;92.35
77003;BME280;65939;50.060;14.288;2023-11-19T04:27:30;96945.66;;;4.35;92.14
77003;BME280;65939;50.060;14.288;2023-11-19T04:29:31;96947.31;;;4.36;92.67
77003;BME280;65939;50.060;14.288;2023-11-19T04:31:31;96938.59;;;4.37;92.52
77003;BME280;65939;50.060;14.288;2023-11-19T04:33:32;96956.69;;;4.37;92.48
77003;BME280;65939;50.060;14.288;2023-11-19T04:35:33;96945.44;;;4.38;92.32
77003;BME280;65939;50.060;14.288;2023-11-19T04:37:33;96939.16;;;4.40;93.31
77003;BME280;65939;50.060;14.288;2023-11-19T04:39:35;96933.19;;;4.40;93.03
77003;BME280;65939;50.060;14.288;2023-11-19T04:41:36;96928.81;;;4.40;93.40
77003;BME280;65939;50.060;14.288;2023-11-19T04:43:37;96924.47;;;4.41;92.57
77003;BME280;65939;50.060;14.288;2023-11-19T04:45:37;96921.63;;;4.44;92.81
77003;BME280;65939;50.060;14.288;2023-11-19T04:47:39;96917.19;;;4.46;92.60
77003;BME280;65939;50.060;14.288;2023-11-19T04:49:40;96908.59;;;4.45;92.74
77003;BME280;65939;50.060;14.288;2023-11-19T04:51:45;96905.19;;;4.45;92.68
77003;BME280;65939;50.060;14.288;2023-11-19T04:53:47;96899.19;;;4.44;92.82
77003;BME280;65939;50.060;14.288;2023-11-19T04:55:48;96889.69;;;4.45;93.42
77003;BME280;65939;50.060;14.288;2023-11-19T04:57:49;96873.34;;;4.44;93.53
77003;BME280;65939;50.060;14.288;2023-11-19T04:59:49;96875.00;;;4.45;93.03
77003;BME280;65939;50.060;14.288;2023-11-19T05:01:50;96882.88;;;4.44;93.19
77003;BME280;65939;50.060;14.288;2023-11-19T05:03:51;96881.25;;;4.43;93.57
77003;BME280;65939;50.060;14.288;2023-11-19T05:05:51;96866.69;;;4.42;93.22
77003;BME280;65939;50.060;14.288;2023-11-19T05:07:52;96867.59;;;4.41;93.63
77003;BME280;65939;50.060;14.288;2023-11-19T05:09:53;96857.16;;;4.42;93.76
77003;BME280;65939;50.060;14.288;2023-11-19T05:11:54;96859.59;;;4.44;93.95
77003;BME280;65939;50.060;14.288;2023-11-19T05:13:55;96859.50;;;4.45;94.01
77003;BME280;65939;50.060;14.288;2023-11-19T05:15:56;96856.09;;;4.45;93.59
77003;BME280;65939;50.060;14.288;2023-11-19T05:17:56;96852.56;;;4.46;94.12
77003;BME280;65939;50.060;14.288;2023-11-19T05:19:57;96854.19;;;4.47;93.63
77003;BME280;65939;50.060;14.288;2023-11-19T05:21:58;96849.81;;;4.47;94.04
77003;BME280;65939;50.060;14.288;2023-11-19T05:23:58;96863.31;;;4.51;94.20
77003;BME280;65939;50.060;14.288;2023-11-19T05:26:00;96849.47;;;4.52;94.24
77003;BME280;65939;50.060;14.288;2023-11-19T05:28:01;96845.94;;;4.53;93.84
77003;BME280;65939;50.060;14.288;2023-11-19T05:30:03;96836.25;;;4.55;94.26
77003;BME280;65939;50.060;14.288;2023-11-19T05:32:05;96829.34;;;4.55;94.36
77003;BME280;65939;50.060;14.288;2023-11-19T05:34:05;96825.81;;;4.56;94.44
77003;BME280;65939;50.060;14.288;2023-11-19T05:36:08;96830.84;;;4.58;94.73
77003;BME280;65939;50.060;14.288;2023-11-19T05:38:08;96828.13;;;4.60;94.45
77003;BME280;65939;50.060;14.288;2023-11-19T05:40:10;96822.00;;;4.61;94.25
77003;BME280;65939;50.060;14.288;2023-11-19T05:42:14;96814.94;;;4.63;94.34
77003;BME280;65939;50.060;14.288;2023-11-19T05:44:15;96817.41;;;4.64;94.39
77003;BME280;65939;50.060;14.288;2023-11-19T05:46:16;96810.34;;;4.66;94.37
77003;BME280;65939;50.060;14.288;2023-11-19T05:48:17;96815.22;;;4.69;94.83
77003;BME280;65939;50.060;14.288;2023-11-19T05:50:18;96810.59;;;4.73;94.38
77003;BME280;65939;50.060;14.288;2023-11-19T05:52:18;96814.72;;;4.75;94.52
77003;BME280;65939;50.060;14.288;2023-11-19T05:54:19;96818.81;;;4.78;94.62
77003;BME280;65939;50.060;14.288;2023-11-19T05:56:21;96817.75;;;4.80;94.32
77003;BME280;65939;50.060;14.288;2023-11-19T05:58:26;96819.38;;;4.82;94.59
77003;BME280;65939;50.060;14.288;2023-11-19T06:00:29;96801.94;;;4.84;94.11
77003;BME280;65939;50.060;14.288;2023-11-19T06:02:29;96810.38;;;4.86;94.65
77003;BME280;65939;50.060;14.288;2023-11-19T06:04:30;96792.97;;;4.88;94.15
77003;BME280;65939;50.060;14.288;2023-11-19T06:06:31;96798.28;;;4.86;94.49
77003;BME280;65939;50.060;14.288;2023-11-19T06:08:32;96795.56;;;4.88;94.20
77003;BME280;65939;50.060;14.288;2023-11-19T06:10:32;96795.28;;;4.91;93.96
77003;BME280;65939;50.060;14.288;2023-11-19T06:12:34;96784.81;;;4.92;93.57
77003;BME280;65939;50.060;14.288;2023-11-19T06:14:37;96796.94;;;4.92;94.25
77003;BME280;65939;50.060;14.288;2023-11-19T06:16:38;96801.16;;;4.93;94.28
77003;BME280;65939;50.060;14.288;2023-11-19T06:18:40;96797.59;;;4.94;94.33
77003;BME280;65939;50.060;14.288;2023-11-19T06:20:41;96796.69;;;4.95;93.74
77003;BME280;65939;50.060;14.288;2023-11-19T06:22:42;96797.34;;;4.97;94.29
77003;BME280;65939;50.060;14.288;2023-11-19T06:24:44;96779.94;;;4.99;94.37
77003;BME280;65939;50.060;14.288;2023-11-19T06:26:44;96788.78;;;4.96;94.51
77003;BME280;65939;50.060;14.288;2023-11-19T06:28:45;96782.78;;;4.96;93.89
77003;BME280;65939;50.060;14.288;2023-11-19T06:30:46;96783.75;;;4.95;94.68
77003;BME280;65939;50.060;14.288;2023-11-19T06:32:47;96783.03;;;4.93;94.10
77003;BME280;65939;50.060;14.288;2023-11-19T06:34:48;96783.84;;;4.93;94.89
77003;BME280;65939;50.060;14.288;2023-11-19T06:36:49;96777.59;;;4.96;94.44
77003;BME280;65939;50.060;14.288;2023-11-19T06:38:50;96783.59;;;4.96;94.88
77003;BME280;65939;50.060;14.288;2023-11-19T06:40:50;96784.28;;;4.98;94.97
77003;BME280;65939;50.060;14.288;2023-11-19T06:42:51;96786.03;;;4.98;94.83
77003;BME280;65939;50.060;14.288;2023-11-19T06:44:52;96785.09;;;4.99;94.24
77003;BME280;65939;50.060;14.288;2023-11-19T06:46:53;96788.50;;;4.99;94.44
77003;BME280;65939;50.060;14.288;2023-11-19T06:48:54;96791.91;;;5.00;94.75
77003;BME280;65939;50.060;14.288;2023-11-19T06:50:55;96789.16;;;5.01;94.53
77003;BME280;65939;50.060;14.288;2023-11-19T06:52:55;96789.06;;;5.03;94.91
77003;BME280;65939;50.060;14.288;2023-11-19T06:54:56;96787.13;;;5.05;94.66
77003;BME280;65939;50.060;14.288;2023-11-19T06:56:57;96794.63;;;5.08;94.90
77003;BME280;65939;50.060;14.288;2023-11-19T06:58:58;96797.09;;;5.10;94.61
77003;BME280;65939;50.060;14.288;2023-11-19T07:00:58;96783.22;;;5.11;94.66
77003;BME280;65939;50.060;14.288;2023-11-19T07:02:59;96784.03;;;5.11;95.11
77003;BME280;65939;50.060;14.288;2023-11-19T07:05:00;96783.75;;;5.14;94.62
77003;BME280;65939;50.060;14.288;2023-11-19T07:07:03;96784.56;;;5.15;94.66
77003;BME280;65939;50.060;14.288;2023-11-19T07:09:05;96783.50;;;5.17;94.61
77003;BME280;65939;50.060;14.288;2023-11-19T07:11:13;96782.53;;;5.18;94.47
77003;BME280;65939;50.060;14.288;2023-11-19T07:13:15;96776.41;;;5.19;94.71
77003;BME280;65939;50.060;14.288;2023-11-19T07:15:16;96781.56;;;5.19;94.86
77003;BME280;65939;50.060;14.288;2023-11-19T07:17:18;96788.25;;;5.22;94.90
77003;BME280;65939;50.060;14.288;2023-11-19T07:19:20;96782.69;;;5.26;95.33
77003;BME280;65939;50.060;14.288;2023-11-19T07:21:21;96776.31;;;5.31;95.29
77003;BME280;65939;50.060;14.288;2023-11-19T07:23:22;96776.97;;;5.33;95.67
77003;BME280;65939;50.060;14.288;2023-11-19T07:25:23;96781.88;;;5.36;95.16
77003;BME280;65939;50.060;14.288;2023-11-19T07:27:24;96782.56;;;5.38;94.77
77003;BME280;65939;50.060;14.288;2023-11-19T07:29:24;96784.88;;;5.41;95.17
77003;BME280;65939;50.060;14.288;2023-11-19T07:31:25;96768.25;;;5.43;95.08
77003;BME280;65939;50.060;14.288;2023-11-19T07:33:26;96773.97;;;5.47;95.33
77003;BME280;65939;50.060;14.288;2023-11-19T07:35:26;96776.97;;;5.52;95.08
77003;BME280;65939;50.060;14.288;2023-11-19T07:37:27;96773.00;;;5.58;95.69
77003;BME280;65939;50.060;14.288;2023-11-19T07:39:28;96772.63;;;5.62;95.22
77003;BME280;65939;50.060;14.288;2023-11-19T07:41:29;96773.97;;;5.66;95.87
77003;BME280;65939;50.060;14.288;2023-11-19T07:43:30;96788.13;;;5.72;94.93
77003;BME280;65939;50.060;14.288;2023-11-19T07:45:31;96791.13;;;5.77;95.47
77003;BME280;65939;50.060;14.288;2023-11-19T07:47:31;96788.28;;;5.80;95.04
77003;BME280;65939;50.060;14.288;2023-11-19T07:49:32;96781.97;;;5.83;94.67
77003;BME280;65939;50.060;14.288;2023-11-19T07:51:33;96785.38;;;5.83;95.11
77003;BME280;65939;50.060;14.288;2023-11-19T07:53:34;96780.09;;;5.85;94.97
77003;BME280;65939;50.060;14.288;2023-11-19T07:55:35;96784.31;;;5.86;95.08
77003;BME280;65939;50.060;14.288;2023-11-19T07:57:35;96779.81;;;5.88;95.84
77003;BME280;65939;50.060;14.288;2023-11-19T07:59:37;96785.81;;;5.88;95.34
77003;BME280;65939;50.060;14.288;2023-11-19T08:01:37;96786.47;;;5.90;96.49
77003;BME280;65939;50.060;14.288;2023-11-19T08:03:38;96781.84;;;5.94;96.60
77003;BME280;65939;50.060;14.288;2023-11-19T08:05:38;96772.03;;;5.97;95.98
77003;BME280;65939;50.060;14.288;2023-11-19T08:07:39;96763.03;;;6.02;96.59
77003;BME280;65939;50.060;14.288;2023-11-19T08:09:40;96762.63;;;6.06;96.44
77003;BME280;65939;50.060;14.288;2023-11-19T08:11:41;96754.28;;;6.12;97.68
77003;BME280;65939;50.060;14.288;2023-11-19T08:13:42;96761.47;;;6.18;97.31
77003;BME280;65939;50.060;14.288;2023-11-19T08:15:43;96763.66;;;6.23;97.39
77003;BME280;65939;50.060;14.288;2023-11-19T08:17:44;96766.50;;;6.30;97.10
77003;BME280;65939;50.060;14.288;2023-11-19T08:19:44;96761.88;;;6.33;98.01
77003;BME280;65939;50.060;14.288;2023-11-19T08:21:45;96763.06;;;6.39;97.58
77003;BME280;65939;50.060;14.288;2023-11-19T08:23:46;96767.69;;;6.45;98.03
77003;BME280;65939;50.060;14.288;2023-11-19T08:25:46;96760.28;;;6.50;97.51
77003;BME280;65939;50.060;14.288;2023-11-19T08:27:47;96760.69;;;6.55;98.26
77003;BME280;65939;50.060;14.288;2023-11-19T08:29:47;96744.84;;;6.58;98.01
77003;BME280;65939;50.060;14.288;2023-11-19T08:31:48;96736.44;;;6.64;98.29
77003;BME280;65939;50.060;14.288;2023-11-19T08:33:49;96728.91;;;6.71;98.43
77003;BME280;65939;50.060;14.288;2023-11-19T08:35:49;96731.59;;;6.79;98.48
77003;BME280;65939;50.060;14.288;2023-11-19T08:37:50;96737.97;;;6.85;98.42
77003;BME280;65939;50.060;14.288;2023-11-19T08:39:52;96737.53;;;6.89;98.06
77003;BME280;65939;50.060;14.288;2023-11-19T08:41:53;96736.97;;;6.95;97.71
77003;BME280;65939;50.060;14.288;2023-11-19T08:43:55;96735.56;;;7.01;98.02
77003;BME280;65939;50.060;14.288;2023-11-19T08:45:55;96734.03;;;7.08;98.08
77003;BME280;65939;50.060;14.288;2023-11-19T08:47:57;96730.81;;;7.14;98.03
77003;BME280;65939;50.060;14.288;2023-11-19T08:49:57;96725.19;;;7.19;97.98
77003;BME280;65939;50.060;14.288;2023-11-19T08:51:58;96732.53;;;7.24;97.93
77003;BME280;65939;50.060;14.288;2023-11-19T08:53:59;96733.69;;;7.29;97.47
77003;BME280;65939;50.060;14.288;2023-11-19T08:55:59;96742.69;;;7.35;97.64
77003;BME280;65939;50.060;14.288;2023-11-19T08:58:01;96742.09;;;7.41;97.98
77003;BME280;65939;50.060;14.288;2023-11-19T09:00:02;96744.09;;;7.47;98.01
77003;BME280;65939;50.060;14.288;2023-11-19T09:02:08;96744.75;;;7.49;97.45
77003;BME280;65939;50.060;14.288;2023-11-19T09:04:09;96757.28;;;7.54;97.50
77003;BME280;65939;50.060;14.288;2023-11-19T09:06:10;96748.38;;;7.56;97.62
77003;BME280;65939;50.060;14.288;2023-11-19T09:08:10;96746.59;;;7.57;97.20
77003;BME280;65939;50.060;14.288;2023-11-19T09:10:12;96746.16;;;7.61;96.91
77003;BME280;65939;50.060;14.288;2023-11-19T09:12:12;96751.41;;;7.70;97.51
77003;BME280;65939;50.060;14.288;2023-11-19T09:14:14;96751.47;;;7.78;97.64
77003;BME280;65939;50.060;14.288;2023-11-19T09:16:15;96749.91;;;7.85;97.18
77003;BME280;65939;50.060;14.288;2023-11-19T09:18:16;96742.16;;;7.93;97.74
77003;BME280;65939;50.060;14.288;2023-11-19T09:20:16;96743.84;;;8.02;97.69
77003;BME280;65939;50.060;14.288;2023-11-19T09:22:17;96743.06;;;8.10;97.01
77003;BME280;65939;50.060;14.288;2023-11-19T09:24:18;96734.19;;;8.21;97.78
77003;BME280;65939;50.060;14.288;2023-11-19T09:26:18;96736.84;;;8.29;97.56
77003;BME280;65939;50.060;14.288;2023-11-19T09:28:19;96739.22;;;8.40;97.45
77003;BME280;65939;50.060;14.288;2023-11-19T09:30:20;96742.66;;;8.49;97.24
77003;BME280;65939;50.060;14.288;2023-11-19T09:32:20;96759.44;;;8.54;97.09
77003;BME280;65939;50.060;14.288;2023-11-19T09:34:21;96753.25;;;8.55;96.15
77003;BME280;65939;50.060;14.288;2023-11-19T09:36:22;96760.75;;;8.58;96.61
77003;BME280;65939;50.060;14.288;2023-11-19T09:38:23;96755.38;;;8.60;96.40
77003;BME280;65939;50.060;14.288;2023-11-19T09:40:23;96764.19;;;8.67;96.71
77003;BME280;65939;50.060;14.288;2023-11-19T09:42:24;96757.28;;;8.84;97.29
77003;BME280;65939;50.060;14.288;2023-11-19T09:44:26;96761.69;;;9.00;96.83
77003;BME280;65939;50.060;14.288;2023-11-19T09:46:28;96771.69;;;9.13;96.56
77003;BME280;65939;50.060;14.288;2023-11-19T09:48:30;96758.16;;;9.17;96.05
77003;BME280;65939;50.060;14.288;2023-11-19T09:50:31;96762.56;;;9.17;96.05
77003;BME280;65939;50.060;14.288;2023-11-19T09:52:32;96758.84;;;9.19;95.42
77003;BME280;65939;50.060;14.288;2023-11-19T09:54:32;96748.91;;;9.23;95.56
77003;BME280;65939;50.060;14.288;2023-11-19T09:56:37;96745.66;;;9.29;95.48
77003;BME280;65939;50.060;14.288;2023-11-19T09:58:38;96735.88;;;9.23;95.11
77003;BME280;65939;50.060;14.288;2023-11-19T10:00:40;96734.59;;;9.19;94.67
77003;BME280;65939;50.060;14.288;2023-11-19T10:02:41;96720.91;;;9.17;95.31
77003;BME280;65939;50.060;14.288;2023-11-19T10:04:42;96719.78;;;9.19;94.75
77003;BME280;65939;50.060;14.288;2023-11-19T10:06:45;96717.00;;;9.21;95.23
77003;BME280;65939;50.060;14.288;2023-11-19T10:08:45;96716.84;;;9.22;95.50
77003;BME280;65939;50.060;14.288;2023-11-19T10:10:47;96724.84;;;9.29;96.06
77003;BME280;65939;50.060;14.288;2023-11-19T10:12:51;96726.94;;;9.33;95.68
77003;BME280;65939;50.060;14.288;2023-11-19T10:14:55;96727.13;;;9.40;95.40
77003;BME280;65939;50.060;14.288;2023-11-19T10:16:56;96712.59;;;9.46;95.55
77003;BME280;65939;50.060;14.288;2023-11-19T10:18:57;96714.91;;;9.57;95.83
77003;BME280;65939;50.060;14.288;2023-11-19T10:20:58;96708.38;;;9.69;95.48
77003;BME280;65939;50.060;14.288;2023-11-19T10:22:58;96702.00;;;9.80;95.42
77003;BME280;65939;50.060;14.288;2023-11-19T10:24:59;96713.88;;;9.91;94.82
77003;BME280;65939;50.060;14.288;2023-11-19T10:27:00;96726.44;;;9.95;94.35
77003;BME280;65939;50.060;14.288;2023-11-19T10:29:04;96718.94;;;10.00;95.19
77003;BME280;65939;50.060;14.288;2023-11-19T10:31:05;96706.53;;;10.11;95.18
77003;BME280;65939;50.060;14.288;2023-11-19T10:33:11;96706.31;;;10.20;94.30
77003;BME280;65939;50.060;14.288;2023-11-19T10:35:17;96702.56;;;10.23;93.91
77003;BME280;65939;50.060;14.288;2023-11-19T10:37:29;96709.59;;;10.30;94.07
77003;BME280;65939;50.060;14.288;2023-11-19T10:39:54;96703.84;;;10.43;92.97
77003;BME280;65939;50.060;14.288;2023-11-19T10:41:55;96703.47;;;10.54;92.79
77003;BME280;65939;50.060;14.288;2023-11-19T10:43:55;96705.69;;;10.66;93.21